Terminal Aerodrome Forecast
Issued by NWS Bismarck, ND

Home | Current Version | Previous Version | Graphics & Text | Print | Product List | Glossary On
Versions: 1 2 3 4 5 6 7 8 9 10 11 12
000
FTUS43 KBIS 261741
TAFISN
TAF
KISN 261741Z 2618/2718 07007KT P6SM FEW250
     FM262300 07011KT P6SM SCT250
     FM270400 08007KT P6SM SCT250=

USA.gov is the U.S. government's official web portal to all federal, state and local government web resources and services.